sensor_id;sensor_type;location;lat;lon;timestamp;P1;durP1;ratioP1;P2;durP2;ratioP2
41653;SDS011;68687;52.030;7.110;2024-02-21T00:00:37;24.90;;;13.07;;
41653;SDS011;68687;52.030;7.110;2024-02-21T00:03:03;24.00;;;11.50;;
41653;SDS011;68687;52.030;7.110;2024-02-21T00:05:29;20.83;;;11.55;;
41653;SDS011;68687;52.030;7.110;2024-02-21T00:07:55;31.10;;;13.05;;
41653;SDS011;68687;52.030;7.110;2024-02-21T00:10:21;26.50;;;11.48;;
41653;SDS011;68687;52.030;7.110;2024-02-21T00:12:46;27.88;;;11.30;;
41653;SDS011;68687;52.030;7.110;2024-02-21T00:15:12;26.80;;;12.52;;
41653;SDS011;68687;52.030;7.110;2024-02-21T00:17:37;29.55;;;11.82;;
41653;SDS011;68687;52.030;7.110;2024-02-21T00:20:03;21.20;;;11.45;;
41653;SDS011;68687;52.030;7.110;2024-02-21T00:22:28;29.10;;;13.20;;
41653;SDS011;68687;52.030;7.110;2024-02-21T00:24:56;20.13;;;11.32;;
41653;SDS011;68687;52.030;7.110;2024-02-21T00:27:23;21.73;;;10.73;;
41653;SDS011;68687;52.030;7.110;2024-02-21T00:29:48;35.25;;;11.23;;
41653;SDS011;68687;52.030;7.110;2024-02-21T00:32:14;23.35;;;11.57;;
41653;SDS011;68687;52.030;7.110;2024-02-21T00:34:39;26.52;;;11.23;;
41653;SDS011;68687;52.030;7.110;2024-02-21T00:37:07;23.23;;;10.05;;
41653;SDS011;68687;52.030;7.110;2024-02-21T00:39:33;31.20;;;11.05;;
41653;SDS011;68687;52.030;7.110;2024-02-21T00:41:58;24.60;;;11.13;;
41653;SDS011;68687;52.030;7.110;2024-02-21T00:44:23;29.60;;;11.38;;
41653;SDS011;68687;52.030;7.110;2024-02-21T00:46:49;23.00;;;10.30;;
41653;SDS011;68687;52.030;7.110;2024-02-21T00:49:14;29.02;;;11.35;;
41653;SDS011;68687;52.030;7.110;2024-02-21T00:51:40;26.88;;;11.20;;
41653;SDS011;68687;52.030;7.110;2024-02-21T00:54:05;32.90;;;13.15;;
41653;SDS011;68687;52.030;7.110;2024-02-21T00:56:31;24.45;;;12.15;;
41653;SDS011;68687;52.030;7.110;2024-02-21T00:58:59;29.17;;;12.00;;
41653;SDS011;68687;52.030;7.110;2024-02-21T01:01:25;27.80;;;12.30;;
41653;SDS011;68687;52.030;7.110;2024-02-21T01:03:50;30.48;;;12.15;;
41653;SDS011;68687;52.030;7.110;2024-02-21T01:06:18;24.95;;;12.38;;
41653;SDS011;68687;52.030;7.110;2024-02-21T01:08:44;29.67;;;13.18;;
41653;SDS011;68687;52.030;7.110;2024-02-21T01:11:09;23.92;;;12.10;;
41653;SDS011;68687;52.030;7.110;2024-02-21T01:13:34;30.98;;;12.27;;
41653;SDS011;68687;52.030;7.110;2024-02-21T01:16:00;25.17;;;10.65;;
41653;SDS011;68687;52.030;7.110;2024-02-21T01:18:25;32.65;;;12.00;;
41653;SDS011;68687;52.030;7.110;2024-02-21T01:20:53;23.58;;;12.13;;
41653;SDS011;68687;52.030;7.110;2024-02-21T01:23:19;29.13;;;12.18;;
41653;SDS011;68687;52.030;7.110;2024-02-21T01:25:44;26.77;;;12.40;;
41653;SDS011;68687;52.030;7.110;2024-02-21T01:28:09;32.67;;;13.00;;
41653;SDS011;68687;52.030;7.110;2024-02-21T01:30:35;28.30;;;11.98;;
41653;SDS011;68687;52.030;7.110;2024-02-21T01:35:59;28.90;;;12.20;;
41653;SDS011;68687;52.030;7.110;2024-02-21T01:38:28;26.23;;;12.43;;
41653;SDS011;68687;52.030;7.110;2024-02-21T01:40:54;23.42;;;12.15;;
41653;SDS011;68687;52.030;7.110;2024-02-21T01:43:20;29.92;;;13.82;;
41653;SDS011;68687;52.030;7.110;2024-02-21T01:45:49;25.00;;;12.15;;
41653;SDS011;68687;52.030;7.110;2024-02-21T01:48:18;23.13;;;11.77;;
41653;SDS011;68687;52.030;7.110;2024-02-21T01:50:45;29.80;;;12.88;;
41653;SDS011;68687;52.030;7.110;2024-02-21T01:53:11;31.02;;;14.38;;
41653;SDS011;68687;52.030;7.110;2024-02-21T01:55:44;24.60;;;11.88;;
41653;SDS011;68687;52.030;7.110;2024-02-21T01:58:10;23.55;;;12.18;;
41653;SDS011;68687;52.030;7.110;2024-02-21T02:00:37;27.00;;;12.93;;
41653;SDS011;68687;52.030;7.110;2024-02-21T02:03:05;26.27;;;11.02;;
41653;SDS011;68687;52.030;7.110;2024-02-21T02:05:30;29.83;;;11.98;;
41653;SDS011;68687;52.030;7.110;2024-02-21T02:07:55;22.83;;;11.98;;
41653;SDS011;68687;52.030;7.110;2024-02-21T02:10:20;23.85;;;11.07;;
41653;SDS011;68687;52.030;7.110;2024-02-21T02:12:46;25.50;;;11.40;;
41653;SDS011;68687;52.030;7.110;2024-02-21T02:15:11;32.30;;;12.48;;
41653;SDS011;68687;52.030;7.110;2024-02-21T02:17:37;26.83;;;11.73;;
41653;SDS011;68687;52.030;7.110;2024-02-21T02:20:02;25.15;;;12.70;;
41653;SDS011;68687;52.030;7.110;2024-02-21T02:22:29;23.63;;;12.00;;
41653;SDS011;68687;52.030;7.110;2024-02-21T02:24:57;27.65;;;12.15;;
41653;SDS011;68687;52.030;7.110;2024-02-21T02:27:23;21.65;;;12.48;;
41653;SDS011;68687;52.030;7.110;2024-02-21T02:29:49;37.38;;;12.82;;
41653;SDS011;68687;52.030;7.110;2024-02-21T02:32:17;27.55;;;11.35;;
41653;SDS011;68687;52.030;7.110;2024-02-21T02:34:42;23.27;;;11.52;;
41653;SDS011;68687;52.030;7.110;2024-02-21T02:37:08;25.63;;;11.20;;
41653;SDS011;68687;52.030;7.110;2024-02-21T02:39:36;26.25;;;11.70;;
41653;SDS011;68687;52.030;7.110;2024-02-21T02:42:02;30.13;;;11.85;;
41653;SDS011;68687;52.030;7.110;2024-02-21T02:44:27;26.17;;;12.13;;
41653;SDS011;68687;52.030;7.110;2024-02-21T02:46:52;32.88;;;12.00;;
41653;SDS011;68687;52.030;7.110;2024-02-21T02:49:18;24.20;;;10.75;;
41653;SDS011;68687;52.030;7.110;2024-02-21T02:51:43;25.63;;;11.82;;
41653;SDS011;68687;52.030;7.110;2024-02-21T02:54:09;30.88;;;11.85;;
41653;SDS011;68687;52.030;7.110;2024-02-21T02:56:35;28.30;;;11.10;;
41653;SDS011;68687;52.030;7.110;2024-02-21T02:59:00;27.10;;;10.93;;
41653;SDS011;68687;52.030;7.110;2024-02-21T03:01:25;31.92;;;12.02;;
41653;SDS011;68687;52.030;7.110;2024-02-21T03:03:51;28.17;;;12.43;;
41653;SDS011;68687;52.030;7.110;2024-02-21T03:06:19;23.88;;;11.35;;
41653;SDS011;68687;52.030;7.110;2024-02-21T03:08:45;29.02;;;11.48;;
41653;SDS011;68687;52.030;7.110;2024-02-21T03:11:10;31.20;;;11.48;;
41653;SDS011;68687;52.030;7.110;2024-02-21T03:13:38;30.20;;;11.75;;
41653;SDS011;68687;52.030;7.110;2024-02-21T03:16:04;27.67;;;11.68;;
41653;SDS011;68687;52.030;7.110;2024-02-21T03:18:29;25.00;;;11.68;;
41653;SDS011;68687;52.030;7.110;2024-02-21T03:20:55;25.33;;;10.93;;
41653;SDS011;68687;52.030;7.110;2024-02-21T03:23:20;25.48;;;11.43;;
41653;SDS011;68687;52.030;7.110;2024-02-21T03:25:45;27.95;;;12.07;;
41653;SDS011;68687;52.030;7.110;2024-02-21T03:28:11;27.13;;;11.88;;
41653;SDS011;68687;52.030;7.110;2024-02-21T03:30:36;30.95;;;11.45;;
41653;SDS011;68687;52.030;7.110;2024-02-21T03:33:02;29.58;;;12.35;;
41653;SDS011;68687;52.030;7.110;2024-02-21T03:35:27;25.42;;;11.00;;
41653;SDS011;68687;52.030;7.110;2024-02-21T03:37:56;27.63;;;11.43;;
41653;SDS011;68687;52.030;7.110;2024-02-21T03:40:21;27.95;;;11.48;;
41653;SDS011;68687;52.030;7.110;2024-02-21T03:42:47;27.55;;;11.60;;
41653;SDS011;68687;52.030;7.110;2024-02-21T03:45:12;25.33;;;11.13;;
41653;SDS011;68687;52.030;7.110;2024-02-21T03:47:37;20.88;;;10.57;;
41653;SDS011;68687;52.030;7.110;2024-02-21T03:50:03;31.77;;;12.20;;
41653;SDS011;68687;52.030;7.110;2024-02-21T03:52:29;25.17;;;10.98;;
41653;SDS011;68687;52.030;7.110;2024-02-21T03:54:54;24.63;;;10.63;;
41653;SDS011;68687;52.030;7.110;2024-02-21T03:57:20;24.08;;;11.27;;
41653;SDS011;68687;52.030;7.110;2024-02-21T03:59:46;20.92;;;10.45;;
41653;SDS011;68687;52.030;7.110;2024-02-21T04:02:11;20.92;;;10.35;;
41653;SDS011;68687;52.030;7.110;2024-02-21T04:04:37;26.08;;;10.90;;
41653;SDS011;68687;52.030;7.110;2024-02-21T04:07:02;19.38;;;10.52;;
41653;SDS011;68687;52.030;7.110;2024-02-21T04:09:34;27.80;;;11.52;;
41653;SDS011;68687;52.030;7.110;2024-02-21T04:12:00;29.27;;;10.98;;
41653;SDS011;68687;52.030;7.110;2024-02-21T04:14:26;28.65;;;10.30;;
41653;SDS011;68687;52.030;7.110;2024-02-21T04:16:51;20.90;;;10.20;;
41653;SDS011;68687;52.030;7.110;2024-02-21T04:19:16;23.33;;;9.77;;
41653;SDS011;68687;52.030;7.110;2024-02-21T04:21:44;20.25;;;9.75;;
41653;SDS011;68687;52.030;7.110;2024-02-21T04:24:12;22.85;;;9.65;;
41653;SDS011;68687;52.030;7.110;2024-02-21T04:26:41;23.90;;;10.40;;
41653;SDS011;68687;52.030;7.110;2024-02-21T04:29:06;19.38;;;9.57;;
41653;SDS011;68687;52.030;7.110;2024-02-21T04:31:32;23.05;;;9.50;;
41653;SDS011;68687;52.030;7.110;2024-02-21T04:33:58;21.33;;;9.63;;
41653;SDS011;68687;52.030;7.110;2024-02-21T04:36:23;24.15;;;10.07;;
41653;SDS011;68687;52.030;7.110;2024-02-21T04:38:49;24.30;;;9.98;;
41653;SDS011;68687;52.030;7.110;2024-02-21T04:41:15;28.63;;;10.15;;
41653;SDS011;68687;52.030;7.110;2024-02-21T04:43:40;23.30;;;9.27;;
41653;SDS011;68687;52.030;7.110;2024-02-21T04:46:05;26.27;;;10.77;;
41653;SDS011;68687;52.030;7.110;2024-02-21T04:48:31;23.42;;;10.00;;
41653;SDS011;68687;52.030;7.110;2024-02-21T04:50:56;20.45;;;9.70;;
41653;SDS011;68687;52.030;7.110;2024-02-21T04:53:22;24.60;;;10.27;;
41653;SDS011;68687;52.030;7.110;2024-02-21T04:55:50;23.27;;;9.85;;
41653;SDS011;68687;52.030;7.110;2024-02-21T04:58:15;20.42;;;9.40;;
41653;SDS011;68687;52.030;7.110;2024-02-21T05:00:41;23.48;;;9.45;;
41653;SDS011;68687;52.030;7.110;2024-02-21T05:03:09;20.67;;;9.50;;
41653;SDS011;68687;52.030;7.110;2024-02-21T05:05:36;21.92;;;9.43;;
41653;SDS011;68687;52.030;7.110;2024-02-21T05:08:01;23.85;;;9.82;;
41653;SDS011;68687;52.030;7.110;2024-02-21T05:10:26;21.55;;;9.68;;
41653;SDS011;68687;52.030;7.110;2024-02-21T05:12:55;21.60;;;9.45;;
41653;SDS011;68687;52.030;7.110;2024-02-21T05:15:20;20.20;;;9.55;;
41653;SDS011;68687;52.030;7.110;2024-02-21T05:17:46;23.70;;;9.18;;
41653;SDS011;68687;52.030;7.110;2024-02-21T05:20:11;21.05;;;8.85;;
41653;SDS011;68687;52.030;7.110;2024-02-21T05:22:36;24.70;;;8.95;;
41653;SDS011;68687;52.030;7.110;2024-02-21T05:25:02;22.65;;;8.95;;
41653;SDS011;68687;52.030;7.110;2024-02-21T05:27:27;21.10;;;10.23;;
41653;SDS011;68687;52.030;7.110;2024-02-21T05:29:53;19.85;;;8.68;;
41653;SDS011;68687;52.030;7.110;2024-02-21T05:32:21;23.15;;;10.20;;
41653;SDS011;68687;52.030;7.110;2024-02-21T05:34:50;20.30;;;8.93;;
41653;SDS011;68687;52.030;7.110;2024-02-21T05:37:16;18.75;;;9.50;;
41653;SDS011;68687;52.030;7.110;2024-02-21T05:39:41;24.20;;;9.40;;
41653;SDS011;68687;52.030;7.110;2024-02-21T05:42:06;25.00;;;9.45;;
41653;SDS011;68687;52.030;7.110;2024-02-21T05:44:32;29.25;;;10.73;;
41653;SDS011;68687;52.030;7.110;2024-02-21T05:46:57;19.13;;;9.38;;
41653;SDS011;68687;52.030;7.110;2024-02-21T05:49:25;21.02;;;7.95;;
41653;SDS011;68687;52.030;7.110;2024-02-21T05:51:51;16.90;;;8.30;;
41653;SDS011;68687;52.030;7.110;2024-02-21T05:54:16;18.65;;;8.77;;
41653;SDS011;68687;52.030;7.110;2024-02-21T05:56:45;17.90;;;9.05;;
41653;SDS011;68687;52.030;7.110;2024-02-21T05:59:11;16.45;;;8.27;;
41653;SDS011;68687;52.030;7.110;2024-02-21T06:01:36;20.98;;;8.60;;
41653;SDS011;68687;52.030;7.110;2024-02-21T06:04:01;20.10;;;8.93;;
41653;SDS011;68687;52.030;7.110;2024-02-21T06:06:30;20.13;;;8.48;;
41653;SDS011;68687;52.030;7.110;2024-02-21T06:08:55;35.47;;;9.25;;
41653;SDS011;68687;52.030;7.110;2024-02-21T06:11:21;21.20;;;9.13;;
41653;SDS011;68687;52.030;7.110;2024-02-21T06:13:49;22.65;;;8.57;;
41653;SDS011;68687;52.030;7.110;2024-02-21T06:16:14;22.83;;;8.80;;
41653;SDS011;68687;52.030;7.110;2024-02-21T06:18:40;22.40;;;10.05;;
41653;SDS011;68687;52.030;7.110;2024-02-21T06:21:05;17.50;;;9.57;;
41653;SDS011;68687;52.030;7.110;2024-02-21T06:23:30;15.88;;;8.30;;
41653;SDS011;68687;52.030;7.110;2024-02-21T06:25:56;20.58;;;9.40;;
41653;SDS011;68687;52.030;7.110;2024-02-21T06:28:24;20.42;;;8.88;;
41653;SDS011;68687;52.030;7.110;2024-02-21T06:30:56;17.05;;;8.60;;
41653;SDS011;68687;52.030;7.110;2024-02-21T06:33:21;19.92;;;8.68;;
41653;SDS011;68687;52.030;7.110;2024-02-21T06:35:50;24.88;;;10.73;;
41653;SDS011;68687;52.030;7.110;2024-02-21T06:38:17;16.25;;;8.25;;
41653;SDS011;68687;52.030;7.110;2024-02-21T06:40:43;17.88;;;8.98;;
41653;SDS011;68687;52.030;7.110;2024-02-21T06:43:17;18.63;;;8.32;;
41653;SDS011;68687;52.030;7.110;2024-02-21T06:45:44;19.80;;;8.38;;
41653;SDS011;68687;52.030;7.110;2024-02-21T06:48:12;22.55;;;8.50;;
41653;SDS011;68687;52.030;7.110;2024-02-21T06:50:38;15.55;;;8.00;;
41653;SDS011;68687;52.030;7.110;2024-02-21T06:53:03;16.38;;;7.85;;
41653;SDS011;68687;52.030;7.110;2024-02-21T06:55:28;20.38;;;8.55;;
41653;SDS011;68687;52.030;7.110;2024-02-21T06:57:54;20.45;;;8.82;;
41653;SDS011;68687;52.030;7.110;2024-02-21T07:00:19;17.00;;;8.50;;
41653;SDS011;68687;52.030;7.110;2024-02-21T07:02:44;21.85;;;8.25;;
41653;SDS011;68687;52.030;7.110;2024-02-21T07:05:10;19.20;;;8.32;;
41653;SDS011;68687;52.030;7.110;2024-02-21T07:07:35;16.58;;;9.02;;
41653;SDS011;68687;52.030;7.110;2024-02-21T07:10:00;20.15;;;8.05;;
41653;SDS011;68687;52.030;7.110;2024-02-21T07:12:26;19.02;;;7.43;;
41653;SDS011;68687;52.030;7.110;2024-02-21T07:14:51;14.20;;;6.93;;
41653;SDS011;68687;52.030;7.110;2024-02-21T07:17:16;13.60;;;7.25;;
41653;SDS011;68687;52.030;7.110;2024-02-21T07:19:42;25.98;;;7.47;;
41653;SDS011;68687;52.030;7.110;2024-02-21T07:22:07;20.10;;;7.22;;
41653;SDS011;68687;52.030;7.110;2024-02-21T07:24:32;20.42;;;7.78;;
41653;SDS011;68687;52.030;7.110;2024-02-21T07:27:04;19.00;;;8.25;;
41653;SDS011;68687;52.030;7.110;2024-02-21T07:29:29;17.73;;;6.90;;
41653;SDS011;68687;52.030;7.110;2024-02-21T07:31:55;18.17;;;7.22;;
41653;SDS011;68687;52.030;7.110;2024-02-21T07:34:21;17.23;;;7.47;;
41653;SDS011;68687;52.030;7.110;2024-02-21T07:36:49;14.55;;;6.63;;
41653;SDS011;68687;52.030;7.110;2024-02-21T07:39:17;18.98;;;7.80;;
41653;SDS011;68687;52.030;7.110;2024-02-21T07:41:43;17.42;;;7.05;;
41653;SDS011;68687;52.030;7.110;2024-02-21T07:44:11;15.60;;;7.55;;
41653;SDS011;68687;52.030;7.110;2024-02-21T07:46:36;19.73;;;8.05;;
41653;SDS011;68687;52.030;7.110;2024-02-21T07:49:01;19.40;;;7.78;;
41653;SDS011;68687;52.030;7.110;2024-02-21T07:51:27;17.33;;;6.88;;
41653;SDS011;68687;52.030;7.110;2024-02-21T07:53:53;20.02;;;7.47;;
41653;SDS011;68687;52.030;7.110;2024-02-21T07:56:18;14.95;;;6.70;;
41653;SDS011;68687;52.030;7.110;2024-02-21T07:58:46;17.35;;;6.78;;
41653;SDS011;68687;52.030;7.110;2024-02-21T08:01:18;20.38;;;7.57;;
41653;SDS011;68687;52.030;7.110;2024-02-21T08:03:47;15.70;;;7.22;;
41653;SDS011;68687;52.030;7.110;2024-02-21T08:06:21;19.17;;;8.00;;
41653;SDS011;68687;52.030;7.110;2024-02-21T08:08:47;16.52;;;7.40;;
41653;SDS011;68687;52.030;7.110;2024-02-21T08:11:12;15.38;;;8.07;;
41653;SDS011;68687;52.030;7.110;2024-02-21T08:13:53;15.93;;;6.28;;
41653;SDS011;68687;52.030;7.110;2024-02-21T08:16:18;17.42;;;8.15;;
41653;SDS011;68687;52.030;7.110;2024-02-21T08:18:44;13.45;;;6.70;;
41653;SDS011;68687;52.030;7.110;2024-02-21T08:21:15;17.10;;;7.60;;
41653;SDS011;68687;52.030;7.110;2024-02-21T08:23:41;14.48;;;6.72;;
41653;SDS011;68687;52.030;7.110;2024-02-21T08:26:07;13.60;;;6.43;;
41653;SDS011;68687;52.030;7.110;2024-02-21T08:28:32;17.23;;;6.55;;
41653;SDS011;68687;52.030;7.110;2024-02-21T08:30:57;17.80;;;6.63;;
41653;SDS011;68687;52.030;7.110;2024-02-21T08:33:25;19.98;;;6.55;;
41653;SDS011;68687;52.030;7.110;2024-02-21T08:35:51;15.57;;;6.95;;
41653;SDS011;68687;52.030;7.110;2024-02-21T08:38:16;18.48;;;7.70;;
41653;SDS011;68687;52.030;7.110;2024-02-21T08:40:42;14.55;;;8.43;;
41653;SDS011;68687;52.030;7.110;2024-02-21T08:43:07;19.65;;;7.53;;
41653;SDS011;68687;52.030;7.110;2024-02-21T08:45:35;18.13;;;7.57;;
41653;SDS011;68687;52.030;7.110;2024-02-21T08:48:04;19.77;;;7.72;;
41653;SDS011;68687;52.030;7.110;2024-02-21T08:50:30;19.23;;;7.22;;
41653;SDS011;68687;52.030;7.110;2024-02-21T08:52:58;19.90;;;8.18;;
41653;SDS011;68687;52.030;7.110;2024-02-21T08:55:27;16.77;;;7.85;;
41653;SDS011;68687;52.030;7.110;2024-02-21T08:57:52;17.98;;;7.88;;
41653;SDS011;68687;52.030;7.110;2024-02-21T09:00:20;18.48;;;7.75;;
41653;SDS011;68687;52.030;7.110;2024-02-21T09:02:54;22.60;;;8.07;;
41653;SDS011;68687;52.030;7.110;2024-02-21T09:05:20;19.70;;;7.60;;
41653;SDS011;68687;52.030;7.110;2024-02-21T09:07:46;17.45;;;7.93;;
41653;SDS011;68687;52.030;7.110;2024-02-21T09:10:11;13.57;;;7.35;;
41653;SDS011;68687;52.030;7.110;2024-02-21T09:12:36;22.45;;;8.10;;
41653;SDS011;68687;52.030;7.110;2024-02-21T09:15:02;19.92;;;7.53;;
41653;SDS011;68687;52.030;7.110;2024-02-21T09:17:28;17.80;;;8.10;;
41653;SDS011;68687;52.030;7.110;2024-02-21T09:19:54;19.08;;;8.13;;
41653;SDS011;68687;52.030;7.110;2024-02-21T09:22:21;17.73;;;7.82;;
41653;SDS011;68687;52.030;7.110;2024-02-21T09:24:52;23.67;;;7.32;;
41653;SDS011;68687;52.030;7.110;2024-02-21T09:27:17;27.10;;;8.80;;
41653;SDS011;68687;52.030;7.110;2024-02-21T09:29:46;30.05;;;11.07;;
41653;SDS011;68687;52.030;7.110;2024-02-21T09:32:11;21.95;;;8.45;;
41653;SDS011;68687;52.030;7.110;2024-02-21T09:34:37;21.13;;;10.05;;
41653;SDS011;68687;52.030;7.110;2024-02-21T09:37:02;20.42;;;7.25;;
41653;SDS011;68687;52.030;7.110;2024-02-21T09:39:28;17.60;;;7.65;;
41653;SDS011;68687;52.030;7.110;2024-02-21T09:41:55;15.07;;;7.20;;
41653;SDS011;68687;52.030;7.110;2024-02-21T09:44:26;17.15;;;7.35;;
41653;SDS011;68687;52.030;7.110;2024-02-21T09:47:09;16.67;;;8.38;;
41653;SDS011;68687;52.030;7.110;2024-02-21T09:49:38;18.35;;;7.22;;
41653;SDS011;68687;52.030;7.110;2024-02-21T09:52:06;17.92;;;7.07;;
41653;SDS011;68687;52.030;7.110;2024-02-21T09:54:32;15.88;;;7.55;;
41653;SDS011;68687;52.030;7.110;2024-02-21T09:57:01;11.85;;;6.22;;
41653;SDS011;68687;52.030;7.110;2024-02-21T09:59:27;12.05;;;6.20;;
41653;SDS011;68687;52.030;7.110;2024-02-21T10:01:54;11.15;;;6.15;;
41653;SDS011;68687;52.030;7.110;2024-02-21T10:04:20;15.07;;;6.70;;
41653;SDS011;68687;52.030;7.110;2024-02-21T10:06:46;12.40;;;6.78;;
41653;SDS011;68687;52.030;7.110;2024-02-21T10:09:32;13.25;;;6.28;;
41653;SDS011;68687;52.030;7.110;2024-02-21T10:12:10;16.48;;;7.40;;
41653;SDS011;68687;52.030;7.110;2024-02-21T10:14:37;12.25;;;6.72;;
41653;SDS011;68687;52.030;7.110;2024-02-21T10:17:06;14.35;;;6.55;;
41653;SDS011;68687;52.030;7.110;2024-02-21T10:19:34;12.68;;;6.30;;
41653;SDS011;68687;52.030;7.110;2024-02-21T10:28:43;13.35;;;5.75;;
41653;SDS011;68687;52.030;7.110;2024-02-21T10:31:23;14.85;;;6.38;;
41653;SDS011;68687;52.030;7.110;2024-02-21T10:36:28;14.38;;;6.78;;
41653;SDS011;68687;52.030;7.110;2024-02-21T10:38:53;11.65;;;6.47;;
41653;SDS011;68687;52.030;7.110;2024-02-21T10:41:20;14.15;;;6.15;;
41653;SDS011;68687;52.030;7.110;2024-02-21T10:43:49;11.90;;;5.45;;
41653;SDS011;68687;52.030;7.110;2024-02-21T10:46:22;16.65;;;5.60;;
41653;SDS011;68687;52.030;7.110;2024-02-21T10:48:52;10.35;;;5.45;;
41653;SDS011;68687;52.030;7.110;2024-02-21T10:51:29;12.57;;;5.95;;
41653;SDS011;68687;52.030;7.110;2024-02-21T10:54:02;12.25;;;6.15;;
41653;SDS011;68687;52.030;7.110;2024-02-21T10:57:07;13.20;;;5.30;;
41653;SDS011;68687;52.030;7.110;2024-02-21T10:59:36;18.92;;;5.82;;
41653;SDS011;68687;52.030;7.110;2024-02-21T11:02:02;11.25;;;4.93;;
41653;SDS011;68687;52.030;7.110;2024-02-21T11:04:28;12.77;;;7.57;;
41653;SDS011;68687;52.030;7.110;2024-02-21T11:06:55;17.30;;;7.63;;
41653;SDS011;68687;52.030;7.110;2024-02-21T11:09:29;12.63;;;6.82;;
41653;SDS011;68687;52.030;7.110;2024-02-21T11:11:56;18.80;;;7.28;;
41653;SDS011;68687;52.030;7.110;2024-02-21T11:14:25;13.40;;;6.57;;
41653;SDS011;68687;52.030;7.110;2024-02-21T11:16:52;8.60;;;4.28;;
41653;SDS011;68687;52.030;7.110;2024-02-21T11:19:22;15.25;;;6.05;;
41653;SDS011;68687;52.030;7.110;2024-02-21T11:21:49;11.35;;;5.60;;
41653;SDS011;68687;52.030;7.110;2024-02-21T11:24:34;13.73;;;5.47;;
41653;SDS011;68687;52.030;7.110;2024-02-21T11:27:42;16.58;;;7.22;;
41653;SDS011;68687;52.030;7.110;2024-02-21T11:29:55;17.58;;;4.95;;
41653;SDS011;68687;52.030;7.110;2024-02-21T11:32:21;10.93;;;5.68;;
41653;SDS011;68687;52.030;7.110;2024-02-21T11:34:56;11.88;;;5.95;;
41653;SDS011;68687;52.030;7.110;2024-02-21T11:37:26;14.30;;;7.22;;
41653;SDS011;68687;52.030;7.110;2024-02-21T11:39:53;24.63;;;11.57;;
41653;SDS011;68687;52.030;7.110;2024-02-21T11:42:28;45.45;;;18.90;;
41653;SDS011;68687;52.030;7.110;2024-02-21T11:44:54;16.25;;;5.95;;
41653;SDS011;68687;52.030;7.110;2024-02-21T11:47:24;21.17;;;9.45;;
41653;SDS011;68687;52.030;7.110;2024-02-21T11:49:50;29.73;;;13.32;;
41653;SDS011;68687;52.030;7.110;2024-02-21T11:52:25;14.07;;;6.43;;
41653;SDS011;68687;52.030;7.110;2024-02-21T11:54:53;26.65;;;11.68;;
41653;SDS011;68687;52.030;7.110;2024-02-21T11:57:21;14.45;;;5.32;;
41653;SDS011;68687;52.030;7.110;2024-02-21T11:59:46;12.80;;;6.63;;
41653;SDS011;68687;52.030;7.110;2024-02-21T12:02:13;17.15;;;5.32;;
41653;SDS011;68687;52.030;7.110;2024-02-21T12:04:39;15.10;;;7.10;;
41653;SDS011;68687;52.030;7.110;2024-02-21T12:07:05;10.85;;;4.90;;
41653;SDS011;68687;52.030;7.110;2024-02-21T12:09:30;14.88;;;5.95;;
41653;SDS011;68687;52.030;7.110;2024-02-21T12:14:25;10.45;;;4.65;;
41653;SDS011;68687;52.030;7.110;2024-02-21T12:16:53;13.50;;;5.70;;
41653;SDS011;68687;52.030;7.110;2024-02-21T12:19:19;15.93;;;6.22;;
41653;SDS011;68687;52.030;7.110;2024-02-21T12:21:48;14.65;;;5.70;;
41653;SDS011;68687;52.030;7.110;2024-02-21T12:26:43;14.02;;;5.97;;
41653;SDS011;68687;52.030;7.110;2024-02-21T12:29:09;14.75;;;6.00;;
41653;SDS011;68687;52.030;7.110;2024-02-21T12:31:37;11.90;;;6.30;;
41653;SDS011;68687;52.030;7.110;2024-02-21T12:34:03;13.30;;;6.15;;
41653;SDS011;68687;52.030;7.110;2024-02-21T12:36:33;14.63;;;7.43;;
41653;SDS011;68687;52.030;7.110;2024-02-21T12:38:58;14.15;;;6.20;;
41653;SDS011;68687;52.030;7.110;2024-02-21T12:41:28;27.13;;;10.02;;
41653;SDS011;68687;52.030;7.110;2024-02-21T12:43:54;15.40;;;7.68;;
41653;SDS011;68687;52.030;7.110;2024-02-21T12:46:21;14.82;;;7.00;;
41653;SDS011;68687;52.030;7.110;2024-02-21T12:48:47;21.13;;;8.35;;
41653;SDS011;68687;52.030;7.110;2024-02-21T12:51:12;13.35;;;6.15;;
41653;SDS011;68687;52.030;7.110;2024-02-21T12:53:43;14.60;;;6.85;;
41653;SDS011;68687;52.030;7.110;2024-02-21T12:56:09;21.23;;;6.57;;
41653;SDS011;68687;52.030;7.110;2024-02-21T12:58:34;16.42;;;6.80;;
41653;SDS011;68687;52.030;7.110;2024-02-21T13:01:00;10.90;;;5.95;;
41653;SDS011;68687;52.030;7.110;2024-02-21T13:03:25;17.10;;;6.60;;
41653;SDS011;68687;52.030;7.110;2024-02-21T13:05:50;14.95;;;6.38;;
41653;SDS011;68687;52.030;7.110;2024-02-21T13:08:16;21.38;;;6.88;;
41653;SDS011;68687;52.030;7.110;2024-02-21T13:10:41;13.65;;;6.13;;
41653;SDS011;68687;52.030;7.110;2024-02-21T13:13:07;21.63;;;7.35;;
41653;SDS011;68687;52.030;7.110;2024-02-21T13:15:35;14.38;;;7.45;;
41653;SDS011;68687;52.030;7.110;2024-02-21T13:18:02;13.82;;;6.03;;
41653;SDS011;68687;52.030;7.110;2024-02-21T13:20:30;16.40;;;7.18;;
41653;SDS011;68687;52.030;7.110;2024-02-21T13:22:56;21.92;;;6.72;;
41653;SDS011;68687;52.030;7.110;2024-02-21T13:25:24;16.45;;;5.88;;
41653;SDS011;68687;52.030;7.110;2024-02-21T13:27:52;11.80;;;5.22;;
41653;SDS011;68687;52.030;7.110;2024-02-21T13:30:21;16.17;;;6.32;;
41653;SDS011;68687;52.030;7.110;2024-02-21T13:32:47;13.40;;;5.88;;
41653;SDS011;68687;52.030;7.110;2024-02-21T13:35:12;14.68;;;5.90;;
41653;SDS011;68687;52.030;7.110;2024-02-21T13:37:42;19.92;;;6.38;;
41653;SDS011;68687;52.030;7.110;2024-02-21T13:40:17;14.00;;;5.60;;
41653;SDS011;68687;52.030;7.110;2024-02-21T13:42:42;10.15;;;5.22;;
41653;SDS011;68687;52.030;7.110;2024-02-21T13:45:14;13.63;;;6.68;;
41653;SDS011;68687;52.030;7.110;2024-02-21T13:47:42;16.05;;;5.40;;
41653;SDS011;68687;52.030;7.110;2024-02-21T13:50:08;15.30;;;6.38;;
41653;SDS011;68687;52.030;7.110;2024-02-21T13:52:35;15.07;;;5.53;;
41653;SDS011;68687;52.030;7.110;2024-02-21T13:55:01;24.58;;;6.07;;
41653;SDS011;68687;52.030;7.110;2024-02-21T13:57:27;14.93;;;5.70;;
41653;SDS011;68687;52.030;7.110;2024-02-21T13:59:53;15.30;;;6.25;;
41653;SDS011;68687;52.030;7.110;2024-02-21T14:02:18;12.77;;;5.78;;
41653;SDS011;68687;52.030;7.110;2024-02-21T14:04:43;20.70;;;7.45;;
41653;SDS011;68687;52.030;7.110;2024-02-21T14:07:09;17.30;;;5.25;;
41653;SDS011;68687;52.030;7.110;2024-02-21T14:09:34;17.75;;;5.50;;
41653;SDS011;68687;52.030;7.110;2024-02-21T14:11:59;12.77;;;5.20;;
41653;SDS011;68687;52.030;7.110;2024-02-21T14:14:28;18.65;;;6.40;;
41653;SDS011;68687;52.030;7.110;2024-02-21T14:16:53;16.95;;;5.47;;
41653;SDS011;68687;52.030;7.110;2024-02-21T14:19:18;13.57;;;4.63;;
41653;SDS011;68687;52.030;7.110;2024-02-21T14:21:44;17.15;;;5.35;;
41653;SDS011;68687;52.030;7.110;2024-02-21T14:24:12;10.02;;;4.47;;
41653;SDS011;68687;52.030;7.110;2024-02-21T14:26:41;18.30;;;5.43;;
41653;SDS011;68687;52.030;7.110;2024-02-21T14:29:06;16.92;;;5.35;;
41653;SDS011;68687;52.030;7.110;2024-02-21T14:31:41;13.25;;;5.45;;
41653;SDS011;68687;52.030;7.110;2024-02-21T14:34:07;14.82;;;5.68;;
41653;SDS011;68687;52.030;7.110;2024-02-21T14:36:33;19.63;;;6.38;;
41653;SDS011;68687;52.030;7.110;2024-02-21T14:39:01;18.85;;;5.75;;
41653;SDS011;68687;52.030;7.110;2024-02-21T14:41:28;15.20;;;6.00;;
41653;SDS011;68687;52.030;7.110;2024-02-21T14:43:54;19.20;;;5.35;;
41653;SDS011;68687;52.030;7.110;2024-02-21T14:46:24;17.83;;;5.47;;